Terminal Aerodrome Forecast
Issued by NWS

Home | Current Version | Previous Version | Text Only | Print | Product List | Glossary On
Versions: 1 2 3 4 5 6 7 8 9 10 11 12 13 14 15 16 17
412
FTUS43 KFGF 170524
TAFBJI
TAF
KBJI 170524Z 1706/1806 21010KT P6SM OVC040
     FM171000 24007KT P6SM BKN150
     FM171300 27007KT P6SM BKN140
     FM171500 28007KT P6SM SCT110
     FM171800 29011KT P6SM SCT200
     FM180400 27007KT P6SM SCT140=

USA.gov is the U.S. government's official web portal to all federal, state and local government web resources and services.